sensor_id;sensor_type;location;lat;lon;timestamp;P1;durP1;ratioP1;P2;durP2;ratioP2
76256;SDS011;65074;50.436;8.672;2023-05-29T00:00:22;3.67;;;2.08;;
76256;SDS011;65074;50.436;8.672;2023-05-29T00:02:49;5.40;;;2.55;;
76256;SDS011;65074;50.436;8.672;2023-05-29T00:05:15;4.05;;;2.42;;
76256;SDS011;65074;50.436;8.672;2023-05-29T00:07:41;5.90;;;2.60;;
76256;SDS011;65074;50.436;8.672;2023-05-29T00:10:07;4.28;;;2.40;;
76256;SDS011;65074;50.436;8.672;2023-05-29T00:12:34;5.03;;;2.50;;
76256;SDS011;65074;50.436;8.672;2023-05-29T00:15:00;3.10;;;2.53;;
76256;SDS011;65074;50.436;8.672;2023-05-29T00:17:28;4.10;;;2.50;;
76256;SDS011;65074;50.436;8.672;2023-05-29T00:19:54;4.85;;;2.40;;
76256;SDS011;65074;50.436;8.672;2023-05-29T00:22:19;3.05;;;2.20;;
76256;SDS011;65074;50.436;8.672;2023-05-29T00:24:45;7.70;;;2.17;;
76256;SDS011;65074;50.436;8.672;2023-05-29T00:27:11;3.88;;;2.53;;
76256;SDS011;65074;50.436;8.672;2023-05-29T00:29:37;4.13;;;2.30;;
76256;SDS011;65074;50.436;8.672;2023-05-29T00:32:03;7.03;;;2.67;;
76256;SDS011;65074;50.436;8.672;2023-05-29T00:34:30;3.50;;;2.05;;
76256;SDS011;65074;50.436;8.672;2023-05-29T00:36:56;7.15;;;2.63;;
76256;SDS011;65074;50.436;8.672;2023-05-29T00:39:21;6.55;;;2.47;;
76256;SDS011;65074;50.436;8.672;2023-05-29T00:41:47;3.78;;;2.65;;
76256;SDS011;65074;50.436;8.672;2023-05-29T00:44:16;4.78;;;2.20;;
76256;SDS011;65074;50.436;8.672;2023-05-29T00:46:46;6.15;;;2.55;;
76256;SDS011;65074;50.436;8.672;2023-05-29T00:49:13;3.17;;;2.05;;
76256;SDS011;65074;50.436;8.672;2023-05-29T00:51:39;4.60;;;2.65;;
76256;SDS011;65074;50.436;8.672;2023-05-29T00:54:06;4.50;;;2.03;;
76256;SDS011;65074;50.436;8.672;2023-05-29T00:56:35;3.80;;;2.35;;
76256;SDS011;65074;50.436;8.672;2023-05-29T00:59:01;6.32;;;2.33;;
76256;SDS011;65074;50.436;8.672;2023-05-29T01:01:26;6.50;;;2.67;;
76256;SDS011;65074;50.436;8.672;2023-05-29T01:03:54;4.40;;;2.03;;
76256;SDS011;65074;50.436;8.672;2023-05-29T01:08:48;3.53;;;2.13;;
76256;SDS011;65074;50.436;8.672;2023-05-29T01:11:28;4.38;;;2.30;;
76256;SDS011;65074;50.436;8.672;2023-05-29T01:14:08;5.30;;;2.25;;
76256;SDS011;65074;50.436;8.672;2023-05-29T01:16:45;3.25;;;2.05;;
76256;SDS011;65074;50.436;8.672;2023-05-29T01:22:34;3.95;;;2.33;;
76256;SDS011;65074;50.436;8.672;2023-05-29T01:25:19;4.10;;;2.08;;
76256;SDS011;65074;50.436;8.672;2023-05-29T01:27:49;4.07;;;2.60;;
76256;SDS011;65074;50.436;8.672;2023-05-29T01:30:15;5.82;;;2.47;;
76256;SDS011;65074;50.436;8.672;2023-05-29T01:32:41;3.65;;;2.20;;
76256;SDS011;65074;50.436;8.672;2023-05-29T01:35:08;3.13;;;2.05;;
76256;SDS011;65074;50.436;8.672;2023-05-29T01:37:34;3.80;;;2.42;;
76256;SDS011;65074;50.436;8.672;2023-05-29T01:40:00;3.20;;;2.53;;
76256;SDS011;65074;50.436;8.672;2023-05-29T01:42:27;3.92;;;1.90;;
76256;SDS011;65074;50.436;8.672;2023-05-29T01:44:54;4.63;;;2.50;;
76256;SDS011;65074;50.436;8.672;2023-05-29T01:47:21;3.13;;;2.33;;
76256;SDS011;65074;50.436;8.672;2023-05-29T01:49:47;4.47;;;2.67;;
76256;SDS011;65074;50.436;8.672;2023-05-29T01:52:14;4.45;;;2.55;;
76256;SDS011;65074;50.436;8.672;2023-05-29T01:54:39;6.35;;;2.53;;
76256;SDS011;65074;50.436;8.672;2023-05-29T01:57:05;4.63;;;2.70;;
76256;SDS011;65074;50.436;8.672;2023-05-29T01:59:32;4.00;;;2.88;;
76256;SDS011;65074;50.436;8.672;2023-05-29T02:02:04;6.70;;;2.72;;
76256;SDS011;65074;50.436;8.672;2023-05-29T02:04:31;6.13;;;3.13;;
76256;SDS011;65074;50.436;8.672;2023-05-29T02:06:56;4.85;;;2.92;;
76256;SDS011;65074;50.436;8.672;2023-05-29T02:09:21;5.95;;;3.53;;
76256;SDS011;65074;50.436;8.672;2023-05-29T02:11:47;5.20;;;2.42;;
76256;SDS011;65074;50.436;8.672;2023-05-29T02:14:13;4.57;;;2.67;;
76256;SDS011;65074;50.436;8.672;2023-05-29T02:16:39;5.22;;;2.75;;
76256;SDS011;65074;50.436;8.672;2023-05-29T02:19:06;6.40;;;3.05;;
76256;SDS011;65074;50.436;8.672;2023-05-29T02:21:32;5.05;;;3.00;;
76256;SDS011;65074;50.436;8.672;2023-05-29T02:23:58;6.75;;;3.03;;
76256;SDS011;65074;50.436;8.672;2023-05-29T02:26:23;6.05;;;2.60;;
76256;SDS011;65074;50.436;8.672;2023-05-29T02:28:49;6.32;;;2.55;;
76256;SDS011;65074;50.436;8.672;2023-05-29T02:31:15;5.00;;;2.88;;
76256;SDS011;65074;50.436;8.672;2023-05-29T02:33:40;3.95;;;2.85;;
76256;SDS011;65074;50.436;8.672;2023-05-29T02:36:05;6.28;;;2.90;;
76256;SDS011;65074;50.436;8.672;2023-05-29T02:38:44;7.18;;;2.95;;
76256;SDS011;65074;50.436;8.672;2023-05-29T02:41:10;8.18;;;3.30;;
76256;SDS011;65074;50.436;8.672;2023-05-29T02:43:35;4.78;;;3.22;;
76256;SDS011;65074;50.436;8.672;2023-05-29T02:46:00;6.70;;;3.72;;
76256;SDS011;65074;50.436;8.672;2023-05-29T02:48:26;5.63;;;3.30;;
76256;SDS011;65074;50.436;8.672;2023-05-29T02:50:51;6.63;;;3.25;;
76256;SDS011;65074;50.436;8.672;2023-05-29T02:53:17;8.68;;;4.05;;
76256;SDS011;65074;50.436;8.672;2023-05-29T02:55:42;8.25;;;3.42;;
76256;SDS011;65074;50.436;8.672;2023-05-29T02:58:08;6.15;;;3.13;;
76256;SDS011;65074;50.436;8.672;2023-05-29T03:00:33;5.80;;;2.65;;
76256;SDS011;65074;50.436;8.672;2023-05-29T03:02:59;6.78;;;3.10;;
76256;SDS011;65074;50.436;8.672;2023-05-29T03:05:25;5.03;;;2.90;;
76256;SDS011;65074;50.436;8.672;2023-05-29T03:07:52;6.55;;;3.40;;
76256;SDS011;65074;50.436;8.672;2023-05-29T03:10:17;6.68;;;3.40;;
76256;SDS011;65074;50.436;8.672;2023-05-29T03:12:43;6.22;;;3.90;;
76256;SDS011;65074;50.436;8.672;2023-05-29T03:15:09;6.70;;;3.20;;
76256;SDS011;65074;50.436;8.672;2023-05-29T03:17:35;6.65;;;3.90;;
76256;SDS011;65074;50.436;8.672;2023-05-29T03:20:03;7.72;;;3.30;;
76256;SDS011;65074;50.436;8.672;2023-05-29T03:22:34;5.38;;;3.70;;
76256;SDS011;65074;50.436;8.672;2023-05-29T03:25:01;10.32;;;3.65;;
76256;SDS011;65074;50.436;8.672;2023-05-29T03:27:30;6.18;;;3.08;;
76256;SDS011;65074;50.436;8.672;2023-05-29T03:30:04;6.03;;;3.25;;
76256;SDS011;65074;50.436;8.672;2023-05-29T03:32:31;7.50;;;4.00;;
76256;SDS011;65074;50.436;8.672;2023-05-29T03:34:56;6.53;;;3.40;;
76256;SDS011;65074;50.436;8.672;2023-05-29T03:37:22;6.38;;;3.72;;
76256;SDS011;65074;50.436;8.672;2023-05-29T03:39:49;7.03;;;3.88;;
76256;SDS011;65074;50.436;8.672;2023-05-29T03:42:15;9.20;;;3.45;;
76256;SDS011;65074;50.436;8.672;2023-05-29T03:44:41;7.28;;;4.05;;
76256;SDS011;65074;50.436;8.672;2023-05-29T03:47:08;4.05;;;3.30;;
76256;SDS011;65074;50.436;8.672;2023-05-29T03:49:35;7.13;;;4.30;;
76256;SDS011;65074;50.436;8.672;2023-05-29T03:52:01;6.50;;;3.47;;
76256;SDS011;65074;50.436;8.672;2023-05-29T03:54:27;7.97;;;4.20;;
76256;SDS011;65074;50.436;8.672;2023-05-29T03:56:53;4.75;;;3.13;;
76256;SDS011;65074;50.436;8.672;2023-05-29T03:59:18;7.80;;;3.85;;
76256;SDS011;65074;50.436;8.672;2023-05-29T04:01:46;8.48;;;4.28;;
76256;SDS011;65074;50.436;8.672;2023-05-29T04:04:13;7.88;;;3.22;;
76256;SDS011;65074;50.436;8.672;2023-05-29T04:06:38;6.35;;;3.85;;
76256;SDS011;65074;50.436;8.672;2023-05-29T04:09:06;5.63;;;3.58;;
76256;SDS011;65074;50.436;8.672;2023-05-29T04:11:33;5.22;;;3.70;;
76256;SDS011;65074;50.436;8.672;2023-05-29T04:14:02;11.60;;;3.60;;
76256;SDS011;65074;50.436;8.672;2023-05-29T04:16:27;6.70;;;3.90;;
76256;SDS011;65074;50.436;8.672;2023-05-29T04:18:53;7.20;;;3.72;;
76256;SDS011;65074;50.436;8.672;2023-05-29T04:21:21;4.72;;;3.63;;
76256;SDS011;65074;50.436;8.672;2023-05-29T04:23:47;6.93;;;4.35;;
76256;SDS011;65074;50.436;8.672;2023-05-29T04:26:12;7.82;;;3.60;;
76256;SDS011;65074;50.436;8.672;2023-05-29T04:28:39;8.30;;;3.83;;
76256;SDS011;65074;50.436;8.672;2023-05-29T04:31:05;6.30;;;3.85;;
76256;SDS011;65074;50.436;8.672;2023-05-29T04:33:31;5.32;;;3.55;;
76256;SDS011;65074;50.436;8.672;2023-05-29T04:35:58;7.47;;;3.58;;
76256;SDS011;65074;50.436;8.672;2023-05-29T04:38:26;7.35;;;3.63;;
76256;SDS011;65074;50.436;8.672;2023-05-29T04:40:53;7.57;;;3.88;;
76256;SDS011;65074;50.436;8.672;2023-05-29T04:43:23;9.80;;;3.42;;
76256;SDS011;65074;50.436;8.672;2023-05-29T04:46:00;6.43;;;3.83;;
76256;SDS011;65074;50.436;8.672;2023-05-29T04:48:27;5.45;;;3.28;;
76256;SDS011;65074;50.436;8.672;2023-05-29T04:50:53;10.18;;;4.28;;
76256;SDS011;65074;50.436;8.672;2023-05-29T04:53:18;6.93;;;3.60;;
76256;SDS011;65074;50.436;8.672;2023-05-29T04:55:43;8.50;;;3.58;;
76256;SDS011;65074;50.436;8.672;2023-05-29T04:58:09;6.57;;;3.60;;
76256;SDS011;65074;50.436;8.672;2023-05-29T05:00:37;7.60;;;3.78;;
76256;SDS011;65074;50.436;8.672;2023-05-29T05:03:03;9.82;;;4.50;;
76256;SDS011;65074;50.436;8.672;2023-05-29T05:05:29;6.50;;;3.75;;
76256;SDS011;65074;50.436;8.672;2023-05-29T05:07:57;7.15;;;3.90;;
76256;SDS011;65074;50.436;8.672;2023-05-29T05:10:23;9.77;;;3.72;;
76256;SDS011;65074;50.436;8.672;2023-05-29T05:12:48;6.95;;;3.80;;
76256;SDS011;65074;50.436;8.672;2023-05-29T05:15:16;7.95;;;3.63;;
76256;SDS011;65074;50.436;8.672;2023-05-29T05:17:42;8.25;;;3.70;;
76256;SDS011;65074;50.436;8.672;2023-05-29T05:20:08;8.68;;;3.58;;
76256;SDS011;65074;50.436;8.672;2023-05-29T05:22:34;6.40;;;3.55;;
76256;SDS011;65074;50.436;8.672;2023-05-29T05:25:00;7.43;;;3.50;;
76256;SDS011;65074;50.436;8.672;2023-05-29T05:27:25;7.38;;;3.80;;
76256;SDS011;65074;50.436;8.672;2023-05-29T05:29:52;9.30;;;3.58;;
76256;SDS011;65074;50.436;8.672;2023-05-29T05:32:18;6.47;;;3.72;;
76256;SDS011;65074;50.436;8.672;2023-05-29T05:34:45;7.20;;;3.63;;
76256;SDS011;65074;50.436;8.672;2023-05-29T05:37:11;6.43;;;3.78;;
76256;SDS011;65074;50.436;8.672;2023-05-29T05:39:39;6.68;;;3.63;;
76256;SDS011;65074;50.436;8.672;2023-05-29T05:42:05;6.68;;;3.80;;
76256;SDS011;65074;50.436;8.672;2023-05-29T05:44:48;5.22;;;3.50;;
76256;SDS011;65074;50.436;8.672;2023-05-29T05:47:14;5.72;;;3.40;;
76256;SDS011;65074;50.436;8.672;2023-05-29T05:49:40;8.98;;;3.53;;
76256;SDS011;65074;50.436;8.672;2023-05-29T05:52:06;5.25;;;3.22;;
76256;SDS011;65074;50.436;8.672;2023-05-29T05:54:31;9.77;;;3.83;;
76256;SDS011;65074;50.436;8.672;2023-05-29T05:56:57;7.13;;;3.20;;
76256;SDS011;65074;50.436;8.672;2023-05-29T05:59:23;7.60;;;3.58;;
76256;SDS011;65074;50.436;8.672;2023-05-29T06:01:48;8.90;;;4.72;;
76256;SDS011;65074;50.436;8.672;2023-05-29T06:04:14;7.05;;;3.10;;
76256;SDS011;65074;50.436;8.672;2023-05-29T06:06:39;5.35;;;3.25;;
76256;SDS011;65074;50.436;8.672;2023-05-29T06:09:04;5.47;;;3.92;;
76256;SDS011;65074;50.436;8.672;2023-05-29T06:11:30;9.63;;;3.53;;
76256;SDS011;65074;50.436;8.672;2023-05-29T06:13:57;7.80;;;3.50;;
76256;SDS011;65074;50.436;8.672;2023-05-29T06:16:27;6.85;;;3.20;;
76256;SDS011;65074;50.436;8.672;2023-05-29T06:18:52;9.23;;;3.05;;
76256;SDS011;65074;50.436;8.672;2023-05-29T06:21:18;6.35;;;3.38;;
76256;SDS011;65074;50.436;8.672;2023-05-29T06:23:50;8.02;;;4.22;;
76256;SDS011;65074;50.436;8.672;2023-05-29T06:26:16;7.32;;;3.53;;
76256;SDS011;65074;50.436;8.672;2023-05-29T06:28:41;6.10;;;3.35;;
76256;SDS011;65074;50.436;8.672;2023-05-29T06:31:07;7.63;;;3.25;;
76256;SDS011;65074;50.436;8.672;2023-05-29T06:33:33;6.78;;;3.35;;
76256;SDS011;65074;50.436;8.672;2023-05-29T06:35:58;6.10;;;3.75;;
76256;SDS011;65074;50.436;8.672;2023-05-29T06:38:24;4.60;;;3.15;;
76256;SDS011;65074;50.436;8.672;2023-05-29T06:40:49;9.20;;;3.55;;
76256;SDS011;65074;50.436;8.672;2023-05-29T06:43:15;7.07;;;3.45;;
76256;SDS011;65074;50.436;8.672;2023-05-29T06:45:46;8.40;;;3.50;;
76256;SDS011;65074;50.436;8.672;2023-05-29T06:48:11;6.10;;;3.38;;
76256;SDS011;65074;50.436;8.672;2023-05-29T06:50:38;8.07;;;3.55;;
76256;SDS011;65074;50.436;8.672;2023-05-29T06:53:23;5.45;;;3.60;;
76256;SDS011;65074;50.436;8.672;2023-05-29T06:55:49;5.03;;;3.38;;
76256;SDS011;65074;50.436;8.672;2023-05-29T06:58:15;6.05;;;3.50;;
76256;SDS011;65074;50.436;8.672;2023-05-29T07:00:40;8.95;;;3.70;;
76256;SDS011;65074;50.436;8.672;2023-05-29T07:03:21;5.20;;;2.85;;
76256;SDS011;65074;50.436;8.672;2023-05-29T07:05:47;8.63;;;3.25;;
76256;SDS011;65074;50.436;8.672;2023-05-29T07:08:12;6.80;;;3.75;;
76256;SDS011;65074;50.436;8.672;2023-05-29T07:10:38;7.90;;;3.25;;
76256;SDS011;65074;50.436;8.672;2023-05-29T07:13:03;6.72;;;3.65;;
76256;SDS011;65074;50.436;8.672;2023-05-29T07:15:31;6.50;;;3.47;;
76256;SDS011;65074;50.436;8.672;2023-05-29T07:17:57;6.53;;;3.45;;
76256;SDS011;65074;50.436;8.672;2023-05-29T07:20:25;6.65;;;2.90;;
76256;SDS011;65074;50.436;8.672;2023-05-29T07:22:51;7.78;;;3.30;;
76256;SDS011;65074;50.436;8.672;2023-05-29T07:25:17;6.85;;;3.42;;
76256;SDS011;65074;50.436;8.672;2023-05-29T07:27:42;6.63;;;3.45;;
76256;SDS011;65074;50.436;8.672;2023-05-29T07:30:07;7.03;;;3.53;;
76256;SDS011;65074;50.436;8.672;2023-05-29T07:32:34;5.65;;;3.20;;
76256;SDS011;65074;50.436;8.672;2023-05-29T07:35:00;6.13;;;3.25;;
76256;SDS011;65074;50.436;8.672;2023-05-29T07:37:26;5.05;;;3.00;;
76256;SDS011;65074;50.436;8.672;2023-05-29T07:39:52;6.40;;;3.00;;
76256;SDS011;65074;50.436;8.672;2023-05-29T07:42:46;9.07;;;3.33;;
76256;SDS011;65074;50.436;8.672;2023-05-29T07:45:12;10.18;;;3.28;;
76256;SDS011;65074;50.436;8.672;2023-05-29T07:47:37;4.70;;;2.80;;
76256;SDS011;65074;50.436;8.672;2023-05-29T07:50:03;5.78;;;2.85;;
76256;SDS011;65074;50.436;8.672;2023-05-29T07:52:29;5.28;;;2.92;;
76256;SDS011;65074;50.436;8.672;2023-05-29T07:54:54;7.15;;;2.88;;
76256;SDS011;65074;50.436;8.672;2023-05-29T07:57:21;8.10;;;3.25;;
76256;SDS011;65074;50.436;8.672;2023-05-29T07:59:47;4.68;;;3.15;;
76256;SDS011;65074;50.436;8.672;2023-05-29T08:02:15;5.13;;;2.80;;
76256;SDS011;65074;50.436;8.672;2023-05-29T08:05:04;6.45;;;3.08;;
76256;SDS011;65074;50.436;8.672;2023-05-29T08:07:30;6.47;;;3.60;;
76256;SDS011;65074;50.436;8.672;2023-05-29T08:09:57;4.82;;;3.22;;
76256;SDS011;65074;50.436;8.672;2023-05-29T08:12:22;7.13;;;3.40;;
76256;SDS011;65074;50.436;8.672;2023-05-29T08:14:50;7.70;;;3.08;;
76256;SDS011;65074;50.436;8.672;2023-05-29T08:17:16;4.43;;;2.95;;
76256;SDS011;65074;50.436;8.672;2023-05-29T08:19:41;7.05;;;3.30;;
76256;SDS011;65074;50.436;8.672;2023-05-29T08:22:06;8.30;;;3.28;;
76256;SDS011;65074;50.436;8.672;2023-05-29T08:24:32;8.93;;;3.47;;
76256;SDS011;65074;50.436;8.672;2023-05-29T08:26:58;5.97;;;3.80;;
76256;SDS011;65074;50.436;8.672;2023-05-29T08:29:23;7.28;;;3.15;;
76256;SDS011;65074;50.436;8.672;2023-05-29T08:31:49;5.65;;;2.95;;
76256;SDS011;65074;50.436;8.672;2023-05-29T08:34:14;5.45;;;3.13;;
76256;SDS011;65074;50.436;8.672;2023-05-29T08:36:39;5.22;;;3.25;;
76256;SDS011;65074;50.436;8.672;2023-05-29T08:39:06;2.95;;;2.47;;
76256;SDS011;65074;50.436;8.672;2023-05-29T08:41:48;7.88;;;3.58;;
76256;SDS011;65074;50.436;8.672;2023-05-29T08:44:26;7.72;;;3.00;;
76256;SDS011;65074;50.436;8.672;2023-05-29T08:49:21;6.57;;;3.13;;
76256;SDS011;65074;50.436;8.672;2023-05-29T08:51:47;6.85;;;4.05;;
76256;SDS011;65074;50.436;8.672;2023-05-29T08:54:19;5.55;;;2.75;;
76256;SDS011;65074;50.436;8.672;2023-05-29T08:56:45;5.65;;;3.17;;
76256;SDS011;65074;50.436;8.672;2023-05-29T08:59:11;7.07;;;3.30;;
76256;SDS011;65074;50.436;8.672;2023-05-29T09:01:36;5.05;;;3.45;;
76256;SDS011;65074;50.436;8.672;2023-05-29T09:04:04;6.07;;;2.97;;
76256;SDS011;65074;50.436;8.672;2023-05-29T09:06:29;16.10;;;3.97;;
76256;SDS011;65074;50.436;8.672;2023-05-29T09:08:58;5.50;;;2.90;;
76256;SDS011;65074;50.436;8.672;2023-05-29T09:11:24;5.88;;;3.10;;
76256;SDS011;65074;50.436;8.672;2023-05-29T09:13:51;4.38;;;3.58;;
76256;SDS011;65074;50.436;8.672;2023-05-29T09:16:17;5.57;;;2.58;;
76256;SDS011;65074;50.436;8.672;2023-05-29T09:18:42;4.18;;;3.47;;
76256;SDS011;65074;50.436;8.672;2023-05-29T09:21:13;6.65;;;2.97;;
76256;SDS011;65074;50.436;8.672;2023-05-29T09:23:51;3.35;;;2.60;;
76256;SDS011;65074;50.436;8.672;2023-05-29T09:26:18;6.53;;;3.20;;
76256;SDS011;65074;50.436;8.672;2023-05-29T09:28:47;4.85;;;2.53;;
76256;SDS011;65074;50.436;8.672;2023-05-29T09:31:15;7.90;;;3.38;;
76256;SDS011;65074;50.436;8.672;2023-05-29T09:33:47;5.00;;;3.22;;
76256;SDS011;65074;50.436;8.672;2023-05-29T09:36:20;7.30;;;3.17;;
76256;SDS011;65074;50.436;8.672;2023-05-29T09:38:49;5.93;;;3.15;;
76256;SDS011;65074;50.436;8.672;2023-05-29T09:41:21;5.68;;;2.90;;
76256;SDS011;65074;50.436;8.672;2023-05-29T09:43:49;4.50;;;2.83;;
76256;SDS011;65074;50.436;8.672;2023-05-29T09:46:15;4.40;;;2.97;;
76256;SDS011;65074;50.436;8.672;2023-05-29T09:48:45;5.53;;;2.90;;
76256;SDS011;65074;50.436;8.672;2023-05-29T09:51:23;5.75;;;3.63;;
76256;SDS011;65074;50.436;8.672;2023-05-29T09:53:49;6.57;;;3.08;;
76256;SDS011;65074;50.436;8.672;2023-05-29T09:56:18;4.72;;;2.85;;
76256;SDS011;65074;50.436;8.672;2023-05-29T09:58:49;4.32;;;2.75;;
76256;SDS011;65074;50.436;8.672;2023-05-29T10:01:16;6.00;;;4.03;;
76256;SDS011;65074;50.436;8.672;2023-05-29T10:03:42;5.97;;;3.00;;
76256;SDS011;65074;50.436;8.672;2023-05-29T10:06:09;4.55;;;2.78;;
76256;SDS011;65074;50.436;8.672;2023-05-29T10:08:45;6.40;;;2.95;;
76256;SDS011;65074;50.436;8.672;2023-05-29T10:11:16;4.25;;;2.35;;
76256;SDS011;65074;50.436;8.672;2023-05-29T10:13:49;4.93;;;2.50;;
76256;SDS011;65074;50.436;8.672;2023-05-29T10:16:16;5.50;;;2.58;;
76256;SDS011;65074;50.436;8.672;2023-05-29T10:18:50;5.72;;;2.60;;
76256;SDS011;65074;50.436;8.672;2023-05-29T10:21:20;3.58;;;2.50;;
76256;SDS011;65074;50.436;8.672;2023-05-29T10:23:47;4.78;;;2.75;;
76256;SDS011;65074;50.436;8.672;2023-05-29T10:26:15;4.82;;;2.72;;
76256;SDS011;65074;50.436;8.672;2023-05-29T10:28:48;3.63;;;2.30;;
76256;SDS011;65074;50.436;8.672;2023-05-29T10:34:44;4.65;;;2.55;;
76256;SDS011;65074;50.436;8.672;2023-05-29T10:45:03;4.00;;;2.63;;
76256;SDS011;65074;50.436;8.672;2023-05-29T10:47:29;4.18;;;2.47;;
76256;SDS011;65074;50.436;8.672;2023-05-29T10:49:59;5.75;;;2.97;;
76256;SDS011;65074;50.436;8.672;2023-05-29T10:52:25;3.60;;;2.83;;
76256;SDS011;65074;50.436;8.672;2023-05-29T10:54:51;5.93;;;2.40;;
76256;SDS011;65074;50.436;8.672;2023-05-29T10:57:20;4.00;;;2.72;;
76256;SDS011;65074;50.436;8.672;2023-05-29T10:59:46;2.42;;;2.20;;
76256;SDS011;65074;50.436;8.672;2023-05-29T11:02:17;3.63;;;2.70;;
76256;SDS011;65074;50.436;8.672;2023-05-29T11:04:43;6.25;;;2.75;;
76256;SDS011;65074;50.436;8.672;2023-05-29T11:07:25;5.93;;;2.60;;
76256;SDS011;65074;50.436;8.672;2023-05-29T11:09:58;5.93;;;3.13;;
76256;SDS011;65074;50.436;8.672;2023-05-29T11:15:20;4.85;;;2.55;;
76256;SDS011;65074;50.436;8.672;2023-05-29T11:17:46;5.88;;;2.67;;
76256;SDS011;65074;50.436;8.672;2023-05-29T11:20:57;5.82;;;3.05;;
76256;SDS011;65074;50.436;8.672;2023-05-29T11:23:04;6.65;;;2.67;;
76256;SDS011;65074;50.436;8.672;2023-05-29T11:25:36;4.50;;;2.90;;
76256;SDS011;65074;50.436;8.672;2023-05-29T11:30:47;6.35;;;2.40;;
76256;SDS011;65074;50.436;8.672;2023-05-29T11:33:23;5.10;;;3.13;;
76256;SDS011;65074;50.436;8.672;2023-05-29T11:36:00;4.13;;;2.35;;
76256;SDS011;65074;50.436;8.672;2023-05-29T11:38:26;4.10;;;2.55;;
76256;SDS011;65074;50.436;8.672;2023-05-29T11:40:55;3.92;;;2.60;;
76256;SDS011;65074;50.436;8.672;2023-05-29T11:43:24;4.53;;;2.72;;
76256;SDS011;65074;50.436;8.672;2023-05-29T11:45:50;3.78;;;2.70;;
76256;SDS011;65074;50.436;8.672;2023-05-29T11:48:16;5.45;;;2.88;;
76256;SDS011;65074;50.436;8.672;2023-05-29T11:50:41;4.45;;;2.80;;
76256;SDS011;65074;50.436;8.672;2023-05-29T11:53:09;4.22;;;2.78;;
76256;SDS011;65074;50.436;8.672;2023-05-29T11:55:36;6.22;;;2.92;;
76256;SDS011;65074;50.436;8.672;2023-05-29T11:58:02;4.25;;;2.80;;
76256;SDS011;65074;50.436;8.672;2023-05-29T12:00:35;4.03;;;2.85;;
76256;SDS011;65074;50.436;8.672;2023-05-29T12:03:12;4.55;;;2.88;;
76256;SDS011;65074;50.436;8.672;2023-05-29T12:05:45;6.03;;;3.17;;
76256;SDS011;65074;50.436;8.672;2023-05-29T12:08:11;4.35;;;2.60;;
76256;SDS011;65074;50.436;8.672;2023-05-29T12:10:37;5.30;;;2.75;;
76256;SDS011;65074;50.436;8.672;2023-05-29T12:13:02;6.38;;;2.92;;
76256;SDS011;65074;50.436;8.672;2023-05-29T12:15:28;4.43;;;2.97;;
76256;SDS011;65074;50.436;8.672;2023-05-29T12:17:54;5.10;;;2.85;;
76256;SDS011;65074;50.436;8.672;2023-05-29T12:20:22;4.97;;;2.70;;
76256;SDS011;65074;50.436;8.672;2023-05-29T12:22:51;5.72;;;2.40;;
76256;SDS011;65074;50.436;8.672;2023-05-29T12:25:17;6.38;;;2.97;;
76256;SDS011;65074;50.436;8.672;2023-05-29T12:27:45;4.70;;;2.53;;
76256;SDS011;65074;50.436;8.672;2023-05-29T12:32:46;4.53;;;2.83;;
76256;SDS011;65074;50.436;8.672;2023-05-29T12:35:16;5.15;;;2.85;;
76256;SDS011;65074;50.436;8.672;2023-05-29T12:37:47;3.60;;;2.78;;
76256;SDS011;65074;50.436;8.672;2023-05-29T12:42:52;4.30;;;2.90;;
76256;SDS011;65074;50.436;8.672;2023-05-29T12:45:21;3.95;;;2.75;;
76256;SDS011;65074;50.436;8.672;2023-05-29T12:47:52;4.00;;;3.00;;
76256;SDS011;65074;50.436;8.672;2023-05-29T12:50:28;3.70;;;3.10;;
76256;SDS011;65074;50.436;8.672;2023-05-29T12:53:05;4.40;;;3.08;;
76256;SDS011;65074;50.436;8.672;2023-05-29T12:55:33;4.65;;;3.35;;
76256;SDS011;65074;50.436;8.672;2023-05-29T12:58:04;4.20;;;3.03;;
76256;SDS011;65074;50.436;8.672;2023-05-29T13:00:30;4.32;;;2.92;;
76256;SDS011;65074;50.436;8.672;2023-05-29T13:02:56;5.28;;;2.72;;
76256;SDS011;65074;50.436;8.672;2023-05-29T13:05:22;4.75;;;2.90;;
76256;SDS011;65074;50.436;8.672;2023-05-29T13:07:51;3.88;;;3.08;;
76256;SDS011;65074;50.436;8.672;2023-05-29T13:12:42;4.72;;;3.10;;
76256;SDS011;65074;50.436;8.672;2023-05-29T13:15:09;3.97;;;2.63;;
76256;SDS011;65074;50.436;8.672;2023-05-29T13:17:35;3.42;;;2.72;;
76256;SDS011;65074;50.436;8.672;2023-05-29T13:20:01;4.40;;;2.80;;
76256;SDS011;65074;50.436;8.672;2023-05-29T13:22:26;4.30;;;2.65;;
76256;SDS011;65074;50.436;8.672;2023-05-29T13:24:57;6.13;;;2.80;;
76256;SDS011;65074;50.436;8.672;2023-05-29T13:27:24;5.10;;;2.80;;
76256;SDS011;65074;50.436;8.672;2023-05-29T13:29:50;4.50;;;2.72;;
76256;SDS011;65074;50.436;8.672;2023-05-29T13:32:15;4.43;;;3.15;;
76256;SDS011;65074;50.436;8.672;2023-05-29T13:34:41;7.28;;;2.60;;
76256;SDS011;65074;50.436;8.672;2023-05-29T13:37:07;4.07;;;2.72;;
76256;SDS011;65074;50.436;8.672;2023-05-29T13:39:32;6.00;;;2.80;;
76256;SDS011;65074;50.436;8.672;2023-05-29T13:42:00;6.03;;;3.00;;
76256;SDS011;65074;50.436;8.672;2023-05-29T13:44:26;4.40;;;2.70;;
76256;SDS011;65074;50.436;8.672;2023-05-29T13:46:51;4.07;;;2.72;;
76256;SDS011;65074;50.436;8.672;2023-05-29T13:49:17;4.25;;;2.90;;
76256;SDS011;65074;50.436;8.672;2023-05-29T13:51:42;3.67;;;2.72;;
76256;SDS011;65074;50.436;8.672;2023-05-29T13:54:07;3.85;;;2.72;;
76256;SDS011;65074;50.436;8.672;2023-05-29T13:56:33;3.80;;;3.03;;
76256;SDS011;65074;50.436;8.672;2023-05-29T13:58:58;4.43;;;2.92;;
76256;SDS011;65074;50.436;8.672;2023-05-29T14:01:30;4.22;;;2.75;;
76256;SDS011;65074;50.436;8.672;2023-05-29T14:03:55;3.15;;;2.67;;
76256;SDS011;65074;50.436;8.672;2023-05-29T14:06:21;4.22;;;2.85;;
76256;SDS011;65074;50.436;8.672;2023-05-29T14:08:46;4.07;;;2.72;;
76256;SDS011;65074;50.436;8.672;2023-05-29T14:11:12;4.88;;;2.97;;
76256;SDS011;65074;50.436;8.672;2023-05-29T14:13:37;4.65;;;3.08;;
76256;SDS011;65074;50.436;8.672;2023-05-29T14:16:02;4.18;;;3.00;;
76256;SDS011;65074;50.436;8.672;2023-05-29T14:18:30;4.47;;;2.45;;
76256;SDS011;65074;50.436;8.672;2023-05-29T14:20:56;5.13;;;2.95;;
76256;SDS011;65074;50.436;8.672;2023-05-29T14:23:21;3.35;;;2.35;;
76256;SDS011;65074;50.436;8.672;2023-05-29T14:25:46;3.53;;;2.78;;
76256;SDS011;65074;50.436;8.672;2023-05-29T14:28:12;5.07;;;2.55;;
76256;SDS011;65074;50.436;8.672;2023-05-29T14:30:37;3.95;;;2.42;;
76256;SDS011;65074;50.436;8.672;2023-05-29T14:33:03;3.97;;;2.80;;
76256;SDS011;65074;50.436;8.672;2023-05-29T14:35:28;4.50;;;2.88;;
76256;SDS011;65074;50.436;8.672;2023-05-29T14:37:54;3.80;;;2.50;;
76256;SDS011;65074;50.436;8.672;2023-05-29T14:40:20;4.63;;;2.95;;
76256;SDS011;65074;50.436;8.672;2023-05-29T14:42:45;5.72;;;3.13;;
76256;SDS011;65074;50.436;8.672;2023-05-29T14:45:10;6.32;;;2.80;;
76256;SDS011;65074;50.436;8.672;2023-05-29T14:47:36;4.85;;;2.85;;
76256;SDS011;65074;50.436;8.672;2023-05-29T14:50:01;6.50;;;3.10;;
76256;SDS011;65074;50.436;8.672;2023-05-29T14:52:27;4.57;;;2.65;;
76256;SDS011;65074;50.436;8.672;2023-05-29T14:54:52;3.78;;;2.63;;
76256;SDS011;65074;50.436;8.672;2023-05-29T14:57:18;5.07;;;2.80;;
76256;SDS011;65074;50.436;8.672;2023-05-29T14:59:43;4.25;;;2.55;;
76256;SDS011;65074;50.436;8.672;2023-05-29T15:02:09;6.70;;;3.40;;
76256;SDS011;65074;50.436;8.672;2023-05-29T15:04:34;4.60;;;2.92;;
76256;SDS011;65074;50.436;8.672;2023-05-29T15:07:00;5.38;;;3.08;;
76256;SDS011;65074;50.436;8.672;2023-05-29T15:09:26;5.28;;;2.38;;
76256;SDS011;65074;50.436;8.672;2023-05-29T15:11:51;4.35;;;2.83;;
76256;SDS011;65074;50.436;8.672;2023-05-29T15:14:16;4.38;;;2.78;;
76256;SDS011;65074;50.436;8.672;2023-05-29T15:16:42;4.18;;;2.78;;
76256;SDS011;65074;50.436;8.672;2023-05-29T15:19:08;2.72;;;2.40;;
76256;SDS011;65074;50.436;8.672;2023-05-29T15:21:33;4.43;;;3.08;;